Meteorological Aerodrome Report (METAR)

METAR

Data at: 0850 UTC 29 Nov 2022

METAR for:NVSC (Sola/Vanua Lava Arpt, TO, VU)
Text:No data found

METAR

Data at: 0850 UTC 29 Nov 2022

METAR for:NVSG (Longana Arpt, PA, VU)
Text:No data found

METAR

Data at: 0850 UTC 29 Nov 2022

METAR for:NVSS (Santo/Pekoa Intl, SA, VU)
Text:NVSS 290800Z 36001KT 9999 FEW025 25/23 Q1009
Temperature: 25.0°C ( 77°F)
Dewpoint: 23.0°C ( 73°F) [RH = 89%]
Pressure (altimeter):29.79 inches Hg (1009.0 mb)
Winds:from the N (360 degrees) at 1 MPH (1 knots; 0.5 m/s)
Visibility:6 or more sm (10+ km)
Ceiling:at least 12,000 feet AGL
Clouds: few clouds at 2500 feet AGL

METAR

Data at: 0850 UTC 29 Nov 2022

METAR for:NVSL (Malekula Isl/Lamap, MA, VU)
Text:No data found

METAR

Data at: 0850 UTC 29 Nov 2022

METAR for:NVSP (Norsup Arpt, MA, VU)
Text:No data found

METAR

Data at: 0850 UTC 29 Nov 2022

METAR for:NVVV (Efate/Bauerfield Int, SE, VU)
Text:NVVV 290800Z 00000KT 9999 FEW020 26/23 Q1008
Temperature: 26.0°C ( 79°F)
Dewpoint: 23.0°C ( 73°F) [RH = 84%]
Pressure (altimeter):29.76 inches Hg (1008.0 mb)
Winds:calm
Visibility:6 or more sm (10+ km)
Ceiling:at least 12,000 feet AGL
Clouds: few clouds at 2000 feet AGL

METAR

Data at: 0850 UTC 29 Nov 2022

METAR for:NVVW (Tanna Arpt, TA, VU)
Text:No data found

METAR

Data at: 0850 UTC 29 Nov 2022

METAR for:NVVA (Aneityum/Mystery Isl, TA, VU)
Text:No data found

METAR

Data at: 0850 UTC 29 Nov 2022

NVVV 290800Z 00000KT 9999 FEW020 26/23 Q1008
No Data available for NVSC
No Data available for NVSG
NVSS 290800Z 36001KT 9999 FEW025 25/23 Q1009
No Data available for NVSL
No Data available for NVSP
No Data available for NVVW
No Data available for NVVA